Terminal Aerodrome Forecast
Issued by NWS

Home | Current Version | Previous Version | Text Only | Print | Product List | Glossary Off
Versions: 1 2 3 4 5 6 7 8 9 10 11 12 13 14 15

000
FTUS43 KIWX 212200 AAA
TAFSBN
TAF AMD
KSBN 212200Z 2122/2218 14010KT 6SM HZ BKN250
     FM221200 13008KT 5SM BR SCT025 BKN050=

USA.gov is the U.S. government's official web portal to all federal, state and local government web resources and services.